Time;durP1;ratioP1;P1;durP2;ratioP2;P2;SDS_P1;SDS_P2;PMS_P1;PMS_P2;Temp;Humidity;BMP_temperature;BMP_pressure;BME280_temperature;BME280_humidity;BME280_pressure;Samples;Min_cycle;Max_cycle;Signal;HPM_P1;HPM_P2
2021/12/07 00:00:17;;;;;;;3.10;1.33;;;;;;;;;;6295412;22;20101;-45
2021/12/07 00:02:42;;;;;;;5.38;1.73;;;;;;;;;;6296476;22;20008;-47
2021/12/07 00:05:08;;;;;;;5.00;1.25;;;;;;;;;;6295444;22;20049;-44
2021/12/07 00:07:34;;;;;;;5.82;1.35;;;;;;;;;;6295900;22;20011;-45
2021/12/07 00:09:59;;;;;;;5.40;2.17;;;;;;;;;;6296428;22;20238;-47
2021/12/07 00:12:28;;;;;;;2.42;1.30;;;;;;;;;;6292220;22;20796;-47
2021/12/07 00:15:01;;;;;;;3.92;1.08;;;;;;;;;;6294736;22;20448;-44
2021/12/07 00:17:26;;;;;;;8.05;1.90;;;;;;;;;;6291443;22;20011;-43
2021/12/07 00:19:51;;;;;;;3.45;1.77;;;;;;;;;;6293685;22;20451;-44
2021/12/07 00:22:16;;;;;;;7.50;1.75;;;;;;;;;;6292801;22;20023;-45
2021/12/07 00:24:42;;;;;;;7.32;2.83;;;;;;;;;;6292577;22;20021;-43
2021/12/07 00:27:07;;;;;;;2.88;2.00;;;;;;;;;;6292453;22;20551;-43
2021/12/07 00:29:32;;;;;;;6.82;1.70;;;;;;;;;;6294133;22;20015;-44
2021/12/07 00:32:48;;;;;;;2.15;1.52;;;;;;;;;;6293032;22;20090;-44
2021/12/07 00:35:01;;;;;;;10.23;1.80;;;;;;;;;;6286658;22;20018;-43
2021/12/07 00:37:28;;;;;;;5.45;2.33;;;;;;;;;;6292785;22;20090;-44
2021/12/07 00:39:53;;;;;;;3.55;1.70;;;;;;;;;;6294159;22;20013;-47
2021/12/07 00:42:19;;;;;;;3.33;1.50;;;;;;;;;;6293388;22;20011;-44
2021/12/07 00:44:44;;;;;;;5.90;1.48;;;;;;;;;;6294432;22;20019;-44
2021/12/07 00:47:10;;;;;;;6.90;1.50;;;;;;;;;;6293185;22;20403;-44
2021/12/07 00:49:35;;;;;;;4.75;1.50;;;;;;;;;;6293339;22;20015;-44
2021/12/07 00:52:00;;;;;;;8.05;1.73;;;;;;;;;;6293150;22;20019;-44
2021/12/07 00:54:26;;;;;;;7.32;2.13;;;;;;;;;;6293371;22;20098;-44
2021/12/07 00:56:51;;;;;;;8.15;1.75;;;;;;;;;;6293550;22;20435;-44
2021/12/07 00:59:17;;;;;;;6.35;1.85;;;;;;;;;;6293598;22;20068;-43
2021/12/07 01:01:42;;;;;;;6.70;1.83;;;;;;;;;;6295624;22;20347;-43
2021/12/07 01:04:07;;;;;;;2.63;1.65;;;;;;;;;;6296728;22;20007;-46
2021/12/07 01:06:45;;;;;;;5.57;1.77;;;;;;;;;;6295635;22;20023;-44
2021/12/07 01:09:20;;;;;;;7.95;1.35;;;;;;;;;;6296034;22;20011;-44
2021/12/07 01:25:32;;;;;;;7.55;2.20;;;;;;;;;;6296691;22;20614;-43
2021/12/07 01:28:04;;;;;;;4.60;1.42;;;;;;;;;;6296868;22;20105;-44
2021/12/07 01:30:48;;;;;;;7.10;2.10;;;;;;;;;;6293540;22;20022;-45
2021/12/07 01:40:56;;;;;;;4.55;1.60;;;;;;;;;;6299148;22;20081;-44
2021/12/07 01:51:35;;;;;;;3.85;1.83;;;;;;;;;;6296323;22;20594;-42
2021/12/07 01:59:49;;;;;;;6.32;1.60;;;;;;;;;;6231455;22;20091;-44
2021/12/07 02:02:16;;;;;;;5.50;1.33;;;;;;;;;;6230374;22;20016;-45
2021/12/07 02:04:41;;;;;;;2.47;1.30;;;;;;;;;;6261563;22;20392;-45
2021/12/07 02:07:07;;;;;;;6.97;1.50;;;;;;;;;;6294890;22;20003;-44
2021/12/07 02:09:36;;;;;;;4.75;1.67;;;;;;;;;;6295500;22;20427;-44
2021/12/07 02:12:03;;;;;;;4.60;2.33;;;;;;;;;;6296636;22;20064;-44
2021/12/07 02:14:30;;;;;;;6.85;2.08;;;;;;;;;;6295694;22;20165;-45
2021/12/07 02:16:57;;;;;;;4.95;2.58;;;;;;;;;;6293982;22;20584;-44
2021/12/07 02:19:22;;;;;;;9.43;1.80;;;;;;;;;;6295488;22;20034;-43
2021/12/07 02:21:48;;;;;;;3.95;1.77;;;;;;;;;;6294912;22;20042;-44
2021/12/07 02:24:14;;;;;;;3.60;1.88;;;;;;;;;;6296390;22;20077;-45
2021/12/07 02:26:39;;;;;;;3.58;1.52;;;;;;;;;;6294684;22;20007;-44
2021/12/07 02:29:04;;;;;;;11.63;3.63;;;;;;;;;;6295581;22;20026;-45
2021/12/07 02:31:31;;;;;;;5.47;1.70;;;;;;;;;;6294823;22;20012;-45
2021/12/07 02:33:56;;;;;;;4.95;1.98;;;;;;;;;;6296481;22;20015;-44
2021/12/07 02:36:22;;;;;;;5.80;1.60;;;;;;;;;;6293721;22;20043;-44
2021/12/07 02:38:48;;;;;;;7.57;2.42;;;;;;;;;;6296249;22;20020;-44
2021/12/07 02:41:13;;;;;;;3.85;1.10;;;;;;;;;;6294920;22;20469;-44
2021/12/07 02:43:39;;;;;;;5.22;1.48;;;;;;;;;;6296565;22;20511;-44
2021/12/07 02:46:04;;;;;;;8.13;2.00;;;;;;;;;;6298287;22;20076;-44
2021/12/07 02:48:29;;;;;;;3.95;1.50;;;;;;;;;;6297268;22;20451;-43
2021/12/07 02:50:55;;;;;;;9.48;2.42;;;;;;;;;;6297482;22;20079;-45
2021/12/07 02:53:24;;;;;;;3.08;1.17;;;;;;;;;;6296774;22;20370;-43
2021/12/07 02:55:49;;;;;;;3.65;1.45;;;;;;;;;;6297029;22;20019;-43
2021/12/07 02:58:14;;;;;;;7.07;1.45;;;;;;;;;;6297398;22;20451;-45
2021/12/07 03:00:47;;;;;;;6.75;1.80;;;;;;;;;;6298672;22;20476;-45
2021/12/07 03:03:14;;;;;;;4.68;1.50;;;;;;;;;;6297394;22;20347;-43
2021/12/07 03:27:22;;;;;;;8.90;2.05;;;;;;;;;;6261058;22;20292;-43
2021/12/07 03:29:48;;;;;;;6.88;1.92;;;;;;;;;;6297926;22;20042;-44
2021/12/07 03:32:13;;;;;;;8.75;2.67;;;;;;;;;;6295589;22;20015;-42
2021/12/07 03:34:38;;;;;;;6.30;2.03;;;;;;;;;;6297069;22;20504;-43
2021/12/07 03:37:04;;;;;;;7.50;1.65;;;;;;;;;;6297239;22;20026;-44
2021/12/07 03:39:29;;;;;;;4.60;1.95;;;;;;;;;;6292402;22;20003;-43
2021/12/07 03:41:54;;;;;;;6.15;1.95;;;;;;;;;;6298607;22;20021;-45
2021/12/07 03:44:19;;;;;;;2.00;1.70;;;;;;;;;;6297398;22;20011;-45
2021/12/07 03:46:45;;;;;;;5.43;1.50;;;;;;;;;;6296200;22;20042;-44
2021/12/07 03:49:11;;;;;;;5.28;2.25;;;;;;;;;;6297329;22;20331;-44
2021/12/07 03:51:36;;;;;;;5.20;1.95;;;;;;;;;;6297151;22;20029;-44
2021/12/07 03:54:02;;;;;;;4.53;1.98;;;;;;;;;;6296696;22;20007;-44
2021/12/07 03:56:27;;;;;;;9.10;1.90;;;;;;;;;;6295732;22;20241;-43
2021/12/07 03:58:52;;;;;;;7.40;2.92;;;;;;;;;;6296772;22;20007;-44
2021/12/07 04:01:23;;;;;;;4.72;1.73;;;;;;;;;;6294526;22;20145;-46
2021/12/07 04:03:48;;;;;;;7.45;2.65;;;;;;;;;;6297920;22;20789;-45
2021/12/07 04:06:13;;;;;;;9.10;1.90;;;;;;;;;;6294719;22;20020;-45
2021/12/07 04:08:41;;;;;;;4.30;1.70;;;;;;;;;;6297244;22;20398;-44
2021/12/07 04:11:07;;;;;;;4.72;1.90;;;;;;;;;;6297516;22;20340;-44
2021/12/07 04:13:32;;;;;;;8.82;1.50;;;;;;;;;;6295360;22;20007;-43
2021/12/07 04:15:58;;;;;;;5.90;1.92;;;;;;;;;;6297697;22;20412;-46
2021/12/07 04:18:25;;;;;;;4.85;1.60;;;;;;;;;;6292945;22;20031;-44
2021/12/07 04:20:50;;;;;;;3.50;1.50;;;;;;;;;;6297273;22;20012;-44
2021/12/07 04:23:16;;;;;;;5.45;1.48;;;;;;;;;;6296706;22;20022;-43
2021/12/07 04:25:41;;;;;;;4.85;1.58;;;;;;;;;;6294800;22;20011;-45
2021/12/07 04:28:07;;;;;;;5.95;1.83;;;;;;;;;;6296882;22;20011;-43
2021/12/07 04:30:34;;;;;;;5.68;2.10;;;;;;;;;;6295643;22;20011;-44
2021/12/07 04:33:00;;;;;;;3.90;1.63;;;;;;;;;;6297962;22;20042;-43
2021/12/07 04:35:26;;;;;;;4.13;1.40;;;;;;;;;;6295036;22;20033;-46
2021/12/07 04:37:52;;;;;;;6.20;1.90;;;;;;;;;;6296386;22;20572;-43
2021/12/07 04:40:21;;;;;;;8.38;2.20;;;;;;;;;;6295699;22;20019;-43
2021/12/07 04:42:47;;;;;;;7.55;1.92;;;;;;;;;;6296971;22;20011;-44
2021/12/07 04:45:25;;;;;;;8.20;1.67;;;;;;;;;;6296869;22;20064;-44
2021/12/07 04:58:07;;;;;;;4.15;1.33;;;;;;;;;;6298933;22;20444;-45
2021/12/07 05:00:33;;;;;;;6.28;1.85;;;;;;;;;;6295471;22;20026;-44
2021/12/07 05:03:06;;;;;;;3.83;1.42;;;;;;;;;;6296384;22;20569;-45
2021/12/07 05:05:35;;;;;;;5.00;1.60;;;;;;;;;;6294624;22;20007;-44
2021/12/07 05:08:04;;;;;;;8.40;2.30;;;;;;;;;;6296631;22;20004;-44
2021/12/07 05:10:59;;;;;;;6.13;1.63;;;;;;;;;;6294161;22;20026;-43
2021/12/07 05:34:35;;;;;;;1.48;1.13;;;;;;;;;;6296439;22;20042;-43
2021/12/07 05:40:04;;;;;;;7.32;2.25;;;;;;;;;;6295822;22;20022;-46
2021/12/07 05:42:29;;;;;;;6.88;2.35;;;;;;;;;;6295836;22;20018;-45
2021/12/07 05:44:55;;;;;;;3.53;1.20;;;;;;;;;;6296073;22;20012;-44
2021/12/07 05:47:20;;;;;;;8.27;1.90;;;;;;;;;;6294587;22;20018;-44
2021/12/07 05:49:46;;;;;;;2.58;1.30;;;;;;;;;;6296932;22;20061;-43
2021/12/07 05:52:11;;;;;;;3.38;1.67;;;;;;;;;;6295306;22;20053;-47
2021/12/07 05:54:36;;;;;;;4.88;1.83;;;;;;;;;;6295655;22;20019;-44
2021/12/07 05:57:02;;;;;;;3.72;1.73;;;;;;;;;;6295954;22;20077;-44
2021/12/07 05:59:27;;;;;;;6.40;2.75;;;;;;;;;;6295211;22;20054;-45
2021/12/07 06:01:53;;;;;;;2.28;1.35;;;;;;;;;;6295968;22;20011;-45
2021/12/07 06:04:18;;;;;;;6.03;1.38;;;;;;;;;;6294289;22;20428;-45
2021/12/07 06:06:43;;;;;;;5.03;1.70;;;;;;;;;;6296810;22;20015;-44
2021/12/07 06:09:08;;;;;;;4.18;1.83;;;;;;;;;;6293921;22;20049;-46
2021/12/07 06:11:34;;;;;;;2.90;1.85;;;;;;;;;;6295385;22;20018;-45
2021/12/07 06:13:59;;;;;;;5.93;1.85;;;;;;;;;;6296505;22;20010;-44
2021/12/07 06:16:29;;;;;;;4.53;1.40;;;;;;;;;;6294741;22;20031;-44
2021/12/07 06:18:54;;;;;;;2.88;1.42;;;;;;;;;;6294926;22;20007;-44
2021/12/07 06:21:20;;;;;;;3.25;1.27;;;;;;;;;;6294405;22;20087;-43
2021/12/07 06:23:45;;;;;;;4.32;1.35;;;;;;;;;;6295425;22;20371;-44
2021/12/07 06:26:10;;;;;;;4.03;1.45;;;;;;;;;;6293729;22;20073;-44
2021/12/07 06:28:36;;;;;;;2.30;1.50;;;;;;;;;;6296714;22;20012;-44
2021/12/07 06:31:01;;;;;;;9.93;2.15;;;;;;;;;;6295671;22;20015;-44
2021/12/07 06:33:27;;;;;;;4.65;1.10;;;;;;;;;;6295338;22;20431;-44
2021/12/07 06:35:57;;;;;;;2.15;1.13;;;;;;;;;;6295389;22;20015;-45
2021/12/07 06:38:27;;;;;;;11.02;1.65;;;;;;;;;;6295130;22;20343;-44
2021/12/07 06:40:52;;;;;;;8.48;1.30;;;;;;;;;;6295883;22;20027;-44
2021/12/07 06:43:17;;;;;;;2.75;1.23;;;;;;;;;;6294714;22;20181;-44
2021/12/07 06:45:43;;;;;;;6.28;1.88;;;;;;;;;;6294933;22;20041;-46
2021/12/07 06:48:08;;;;;;;3.35;1.15;;;;;;;;;;6295494;22;20026;-44
2021/12/07 06:50:34;;;;;;;2.15;1.83;;;;;;;;;;6294996;22;20035;-46
2021/12/07 06:52:59;;;;;;;5.43;1.40;;;;;;;;;;6296573;22;20797;-45
2021/12/07 06:55:25;;;;;;;5.25;1.35;;;;;;;;;;6295136;22;20015;-44
2021/12/07 06:57:50;;;;;;;3.63;1.20;;;;;;;;;;6294883;22;20419;-45
2021/12/07 07:00:16;;;;;;;4.78;1.23;;;;;;;;;;6295336;22;20026;-44
2021/12/07 07:02:41;;;;;;;4.30;1.48;;;;;;;;;;6295786;22;20031;-45
2021/12/07 07:05:07;;;;;;;3.58;1.30;;;;;;;;;;6296186;22;20015;-45
2021/12/07 07:07:34;;;;;;;4.88;1.70;;;;;;;;;;6293046;22;20098;-44
2021/12/07 07:09:59;;;;;;;2.38;1.05;;;;;;;;;;6296319;22;20023;-44
2021/12/07 07:12:24;;;;;;;2.28;1.52;;;;;;;;;;6294686;22;20008;-45
2021/12/07 07:14:50;;;;;;;3.10;1.35;;;;;;;;;;6296109;22;20011;-44
2021/12/07 07:17:15;;;;;;;3.92;1.67;;;;;;;;;;6294823;22;20023;-47
2021/12/07 07:19:40;;;;;;;6.03;1.65;;;;;;;;;;6296043;22;20015;-45
2021/12/07 07:22:05;;;;;;;4.90;1.20;;;;;;;;;;6295335;22;20026;-45
2021/12/07 07:24:31;;;;;;;2.53;1.50;;;;;;;;;;6294973;22;20080;-42
2021/12/07 07:26:57;;;;;;;7.82;1.85;;;;;;;;;;6296935;22;20346;-43
2021/12/07 07:29:22;;;;;;;5.13;1.35;;;;;;;;;;6295655;22;20014;-46
2021/12/07 07:31:47;;;;;;;4.38;1.55;;;;;;;;;;6295602;22;20068;-44
2021/12/07 07:34:13;;;;;;;5.18;1.58;;;;;;;;;;6297616;22;20019;-44
2021/12/07 07:36:38;;;;;;;1.75;1.02;;;;;;;;;;6295364;22;20351;-46
2021/12/07 07:39:04;;;;;;;8.02;1.80;;;;;;;;;;6296720;22;20073;-45
2021/12/07 07:41:29;;;;;;;4.68;1.25;;;;;;;;;;6295656;22;20015;-44
2021/12/07 07:43:54;;;;;;;5.50;1.63;;;;;;;;;;6298206;22;20444;-44
2021/12/07 07:46:20;;;;;;;1.48;1.00;;;;;;;;;;6295834;22;20011;-45
2021/12/07 07:48:45;;;;;;;5.32;2.72;;;;;;;;;;6296721;22;20747;-45
2021/12/07 07:51:11;;;;;;;4.82;1.45;;;;;;;;;;6297542;22;20033;-46
2021/12/07 07:53:36;;;;;;;4.88;1.52;;;;;;;;;;6297561;22;20105;-44
2021/12/07 07:56:01;;;;;;;1.85;1.42;;;;;;;;;;6292857;22;20098;-44
2021/12/07 07:58:27;;;;;;;5.53;1.70;;;;;;;;;;6295056;22;20001;-43
2021/12/07 08:00:52;;;;;;;9.05;1.85;;;;;;;;;;6294476;22;20612;-44
2021/12/07 08:03:17;;;;;;;3.80;1.50;;;;;;;;;;6294619;22;20219;-45
2021/12/07 08:05:43;;;;;;;5.10;1.60;;;;;;;;;;6291572;22;20500;-44
2021/12/07 08:08:09;;;;;;;2.10;1.73;;;;;;;;;;6297251;22;20019;-44
2021/12/07 08:10:34;;;;;;;9.00;1.88;;;;;;;;;;6295672;22;20094;-46
2021/12/07 08:13:01;;;;;;;8.38;3.40;;;;;;;;;;6297876;22;20339;-44
2021/12/07 08:15:27;;;;;;;2.90;1.33;;;;;;;;;;6293540;22;20034;-43
2021/12/07 08:17:53;;;;;;;2.67;1.27;;;;;;;;;;6297518;22;20015;-46
2021/12/07 08:20:19;;;;;;;6.13;1.75;;;;;;;;;;6295460;22;20515;-46
2021/12/07 08:22:44;;;;;;;4.82;1.55;;;;;;;;;;6296283;22;20061;-46
2021/12/07 08:25:09;;;;;;;8.15;1.90;;;;;;;;;;6296718;22;20016;-44
2021/12/07 08:27:34;;;;;;;2.65;1.08;;;;;;;;;;6297037;22;20027;-44
2021/12/07 08:30:00;;;;;;;6.75;2.17;;;;;;;;;;6297069;22;20074;-44
2021/12/07 08:32:25;;;;;;;2.83;1.30;;;;;;;;;;6294756;22;20018;-46
2021/12/07 08:34:50;;;;;;;4.13;1.77;;;;;;;;;;6295795;22;20011;-46
2021/12/07 08:37:16;;;;;;;9.00;1.98;;;;;;;;;;6295760;22;20474;-44
2021/12/07 08:39:41;;;;;;;9.05;1.67;;;;;;;;;;6282604;22;20137;-45
2021/12/07 08:42:06;;;;;;;5.78;2.67;;;;;;;;;;6287177;22;20034;-46
2021/12/07 08:44:32;;;;;;;2.08;1.10;;;;;;;;;;6285306;22;20756;-43
2021/12/07 08:46:57;;;;;;;3.97;1.20;;;;;;;;;;6285913;22;20096;-45
2021/12/07 08:49:23;;;;;;;5.03;1.50;;;;;;;;;;6286535;22;20007;-43
2021/12/07 08:51:49;;;;;;;5.20;1.63;;;;;;;;;;6287723;22;20038;-43
2021/12/07 08:54:34;;;;;;;6.25;1.73;;;;;;;;;;6286190;22;20018;-47
2021/12/07 08:59:48;;;;;;;8.88;1.85;;;;;;;;;;6287328;22;20343;-44
2021/12/07 09:02:16;;;;;;;16.58;3.22;;;;;;;;;;6285290;22;20022;-44
2021/12/07 09:04:41;;;;;;;8.88;1.77;;;;;;;;;;6288023;22;20133;-43
2021/12/07 09:07:06;;;;;;;11.50;2.15;;;;;;;;;;6287425;22;20031;-44
2021/12/07 09:09:32;;;;;;;7.63;2.47;;;;;;;;;;6288195;22;20078;-45
2021/12/07 09:11:57;;;;;;;5.85;1.55;;;;;;;;;;6288238;22;20015;-45
2021/12/07 09:14:23;;;;;;;7.10;1.98;;;;;;;;;;6290034;22;20133;-45
2021/12/07 09:16:49;;;;;;;5.75;2.30;;;;;;;;;;6288451;22;20027;-44
2021/12/07 09:19:14;;;;;;;7.30;2.13;;;;;;;;;;6289124;22;20015;-43
2021/12/07 09:21:40;;;;;;;5.22;2.05;;;;;;;;;;6289152;22;20030;-43
2021/12/07 09:24:05;;;;;;;6.00;1.80;;;;;;;;;;6290686;22;20098;-43
2021/12/07 09:26:31;;;;;;;12.93;2.17;;;;;;;;;;6289613;22;20058;-44
2021/12/07 09:28:56;;;;;;;7.53;2.08;;;;;;;;;;6289379;22;20011;-44
2021/12/07 09:31:22;;;;;;;3.03;1.65;;;;;;;;;;6288123;22;20034;-44
2021/12/07 09:33:48;;;;;;;6.50;2.00;;;;;;;;;;6290398;22;20015;-44
2021/12/07 09:36:14;;;;;;;10.35;2.90;;;;;;;;;;6287974;22;20019;-43
2021/12/07 09:38:39;;;;;;;10.15;2.67;;;;;;;;;;6290532;22;20377;-43
2021/12/07 09:41:05;;;;;;;9.13;2.00;;;;;;;;;;6286489;22;20443;-43
2021/12/07 09:43:31;;;;;;;14.85;2.00;;;;;;;;;;6289159;22;20034;-44
2021/12/07 09:45:57;;;;;;;6.35;2.22;;;;;;;;;;6289362;22;20493;-44
2021/12/07 09:48:23;;;;;;;8.45;2.35;;;;;;;;;;6288342;22;20023;-43
2021/12/07 09:50:53;;;;;;;7.40;1.80;;;;;;;;;;6287891;22;20015;-43
2021/12/07 09:53:19;;;;;;;5.78;1.88;;;;;;;;;;6289977;22;20053;-46
2021/12/07 09:55:46;;;;;;;6.28;2.25;;;;;;;;;;6287903;22;20034;-43
2021/12/07 09:58:11;;;;;;;6.93;2.13;;;;;;;;;;6287739;22;20019;-44
2021/12/07 10:00:37;;;;;;;6.00;1.95;;;;;;;;;;6288796;22;20003;-44
2021/12/07 10:03:03;;;;;;;9.65;2.97;;;;;;;;;;6289203;22;20011;-44
2021/12/07 10:05:30;;;;;;;11.52;2.70;;;;;;;;;;6288517;22;20046;-43
2021/12/07 10:07:56;;;;;;;3.45;2.00;;;;;;;;;;6290353;22;20019;-44
2021/12/07 10:10:26;;;;;;;10.65;3.20;;;;;;;;;;6287123;22;20663;-44
2021/12/07 10:12:51;;;;;;;10.52;2.42;;;;;;;;;;6290303;22;20530;-43
2021/12/07 10:15:17;;;;;;;8.45;2.80;;;;;;;;;;6288106;22;20023;-44
2021/12/07 10:17:42;;;;;;;10.73;2.15;;;;;;;;;;6288523;22;20453;-44
2021/12/07 10:20:23;;;;;;;6.97;2.50;;;;;;;;;;6289704;22;20035;-45
2021/12/07 10:22:50;;;;;;;3.38;1.52;;;;;;;;;;6289093;22;20015;-43
2021/12/07 10:25:25;;;;;;;6.32;1.95;;;;;;;;;;6289333;22;20035;-44
2021/12/07 10:27:51;;;;;;;4.10;1.90;;;;;;;;;;6290022;22;20098;-44
2021/12/07 10:30:18;;;;;;;2.60;1.60;;;;;;;;;;6286789;22;20110;-46
2021/12/07 10:32:55;;;;;;;11.73;1.58;;;;;;;;;;6290614;22;20099;-44
2021/12/07 10:35:31;;;;;;;10.55;2.25;;;;;;;;;;6288623;22;20022;-43
2021/12/07 10:38:10;;;;;;;5.07;2.13;;;;;;;;;;6288262;22;20087;-45
2021/12/07 10:40:36;;;;;;;6.82;2.33;;;;;;;;;;6289872;22;20022;-46
2021/12/07 10:43:01;;;;;;;7.53;1.98;;;;;;;;;;6288264;22;20003;-45
2021/12/07 10:45:27;;;;;;;2.17;1.30;;;;;;;;;;6289010;22;20015;-44
2021/12/07 10:47:52;;;;;;;4.82;1.50;;;;;;;;;;6289499;22;20023;-44
2021/12/07 10:50:19;;;;;;;6.25;1.73;;;;;;;;;;6288760;22;20016;-43
2021/12/07 10:52:45;;;;;;;5.82;2.03;;;;;;;;;;6290444;22;20651;-44
2021/12/07 10:55:18;;;;;;;5.03;2.10;;;;;;;;;;6288262;22;20015;-45
2021/12/07 10:57:56;;;;;;;7.78;2.13;;;;;;;;;;6290890;22;20481;-43
2021/12/07 11:00:26;;;;;;;10.47;3.00;;;;;;;;;;6287828;22;20019;-43
2021/12/07 11:02:51;;;;;;;;;;;;;;;;;;6285255;22;20023;-43
2021/12/07 11:05:20;;;;;;;6.43;1.70;;;;;;;;;;6287535;22;19907;-44
2021/12/07 11:07:45;;;;;;;10.25;2.40;;;;;;;;;;6292623;22;20307;-44
2021/12/07 11:10:17;;;;;;;7.55;2.42;;;;;;;;;;6290805;22;20488;-44
2021/12/07 11:13:00;;;;;;;7.82;2.70;;;;;;;;;;6291259;22;20011;-44
2021/12/07 11:15:27;;;;;;;10.15;2.30;;;;;;;;;;6291032;22;20102;-44
2021/12/07 11:17:58;;;;;;;7.65;2.58;;;;;;;;;;6291223;22;20401;-44
2021/12/07 11:20:23;;;;;;;13.43;2.63;;;;;;;;;;6292383;22;20011;-45
2021/12/07 11:22:53;;;;;;;9.90;2.28;;;;;;;;;;6288639;22;20018;-44
2021/12/07 11:31:14;;;;;;;5.35;2.20;;;;;;;;;;6290009;22;20026;-43
2021/12/07 11:33:40;;;;;;;9.13;1.88;;;;;;;;;;6291203;22;20086;-45
2021/12/07 11:36:34;;;;;;;10.05;1.95;;;;;;;;;;6290571;22;20426;-46
2021/12/07 11:39:00;;;;;;;6.43;2.13;;;;;;;;;;6272335;22;20008;-44
2021/12/07 11:41:31;;;;;;;6.88;2.00;;;;;;;;;;6289396;22;20900;-44
2021/12/07 11:44:02;;;;;;;3.50;1.80;;;;;;;;;;6289046;22;20008;-43
2021/12/07 11:46:28;;;;;;;13.25;1.95;;;;;;;;;;6287808;22;20011;-44
2021/12/07 11:49:26;;;;;;;6.50;1.52;;;;;;;;;;6291772;22;20011;-44
2021/12/07 11:51:53;;;;;;;4.43;1.20;;;;;;;;;;6255800;22;20492;-45
2021/12/07 11:54:19;;;;;;;5.57;2.08;;;;;;;;;;6289059;22;20015;-46
2021/12/07 11:56:46;;;;;;;4.18;1.88;;;;;;;;;;6290706;22;20068;-45
2021/12/07 11:59:12;;;;;;;2.80;1.05;;;;;;;;;;6287077;22;20011;-44
2021/12/07 12:01:37;;;;;;;4.88;1.40;;;;;;;;;;6289274;22;20022;-44
2021/12/07 12:04:02;;;;;;;4.07;1.33;;;;;;;;;;6290830;22;20011;-43
2021/12/07 12:06:29;;;;;;;2.92;1.30;;;;;;;;;;6289032;22;20076;-44
2021/12/07 12:08:55;;;;;;;5.55;1.30;;;;;;;;;;6291632;22;20352;-44
2021/12/07 12:11:40;;;;;;;8.57;1.23;;;;;;;;;;6289318;22;20015;-43
2021/12/07 12:14:21;;;;;;;4.32;1.45;;;;;;;;;;6278979;22;20766;-44
2021/12/07 12:17:04;;;;;;;3.83;1.15;;;;;;;;;;6289551;22;20030;-43
2021/12/07 12:19:41;;;;;;;3.33;1.33;;;;;;;;;;6288517;22;20015;-43
2021/12/07 12:22:06;;;;;;;2.85;1.30;;;;;;;;;;6291515;22;20105;-43
2021/12/07 12:24:35;;;;;;;2.67;1.30;;;;;;;;;;6288134;22;20042;-42
2021/12/07 12:27:05;;;;;;;1.87;0.90;;;;;;;;;;6291536;22;20463;-42
2021/12/07 12:29:32;;;;;;;3.53;1.00;;;;;;;;;;6289975;22;20220;-43
2021/12/07 12:31:57;;;;;;;2.75;1.50;;;;;;;;;;6290549;22;20019;-44
2021/12/07 12:34:24;;;;;;;5.13;2.15;;;;;;;;;;6289864;22;20066;-43
2021/12/07 12:37:08;;;;;;;3.20;1.25;;;;;;;;;;6290694;22;20709;-43
2021/12/07 12:39:39;;;;;;;3.33;0.95;;;;;;;;;;6289269;22;20741;-42
2021/12/07 12:42:04;;;;;;;4.10;0.75;;;;;;;;;;6290170;22;20015;-42
2021/12/07 12:44:33;;;;;;;2.78;0.90;;;;;;;;;;6288552;22;20064;-42
2021/12/07 12:46:58;;;;;;;4.38;1.60;;;;;;;;;;6291292;22;20039;-43
2021/12/07 12:49:35;;;;;;;4.47;1.08;;;;;;;;;;6289344;22;20366;-42
2021/12/07 12:52:00;;;;;;;3.67;1.23;;;;;;;;;;6289827;22;20493;-42
2021/12/07 12:54:25;;;;;;;4.47;1.38;;;;;;;;;;6290183;22;20015;-44
2021/12/07 12:56:50;;;;;;;7.28;1.70;;;;;;;;;;6290576;22;20022;-44
2021/12/07 12:59:18;;;;;;;5.70;1.10;;;;;;;;;;6289321;22;20078;-46
2021/12/07 13:01:45;;;;;;;4.20;1.85;;;;;;;;;;6290211;22;20015;-46
2021/12/07 13:04:14;;;;;;;5.43;1.40;;;;;;;;;;6288380;22;20019;-43
2021/12/07 13:06:44;;;;;;;3.90;1.90;;;;;;;;;;6290004;22;20490;-44
2021/12/07 13:09:09;;;;;;;3.55;1.73;;;;;;;;;;6292165;22;20015;-43
2021/12/07 13:11:34;;;;;;;5.50;1.27;;;;;;;;;;6288415;22;20019;-43
2021/12/07 13:13:59;;;;;;;4.80;1.40;;;;;;;;;;6290975;22;20444;-42
2021/12/07 13:16:25;;;;;;;6.75;2.28;;;;;;;;;;6287202;22;20505;-44
2021/12/07 13:18:58;;;;;;;3.17;1.27;;;;;;;;;;6290970;22;20026;-45
2021/12/07 13:21:23;;;;;;;4.70;1.48;;;;;;;;;;6289062;22;20007;-46
2021/12/07 13:23:58;;;;;;;3.25;1.35;;;;;;;;;;6288111;22;20028;-42
2021/12/07 13:26:24;;;;;;;5.18;2.10;;;;;;;;;;6283827;22;20016;-42
2021/12/07 13:29:00;;;;;;;2.17;1.20;;;;;;;;;;6288291;22;20023;-50
2021/12/07 13:31:34;;;;;;;3.70;1.15;;;;;;;;;;6286575;22;20015;-45
2021/12/07 13:34:01;;;;;;;5.55;1.35;;;;;;;;;;6288731;22;20051;-42
2021/12/07 13:36:37;;;;;;;2.85;1.20;;;;;;;;;;6284557;22;20497;-44
2021/12/07 13:39:19;;;;;;;3.38;1.00;;;;;;;;;;6287676;22;20022;-44
2021/12/07 13:42:04;;;;;;;1.83;1.20;;;;;;;;;;6284133;22;20007;-45
2021/12/07 13:44:38;;;;;;;2.97;1.38;;;;;;;;;;6287518;22;20487;-42
2021/12/07 13:47:13;;;;;;;0.95;0.85;;;;;;;;;;6286194;22;20015;-46
2021/12/07 13:49:40;;;;;;;2.78;1.25;;;;;;;;;;6285807;22;20015;-44
2021/12/07 13:52:16;;;;;;;3.88;1.13;;;;;;;;;;6286418;22;20026;-44
2021/12/07 13:54:43;;;;;;;2.17;1.17;;;;;;;;;;6287647;22;20011;-43
2021/12/07 13:57:13;;;;;;;2.17;1.20;;;;;;;;;;6285678;22;20019;-44
2021/12/07 13:59:38;;;;;;;2.40;1.58;;;;;;;;;;6285643;22;20014;-44
2021/12/07 14:02:03;;;;;;;2.15;0.60;;;;;;;;;;6286659;22;20529;-45
2021/12/07 14:04:29;;;;;;;1.00;0.60;;;;;;;;;;6286916;22;20026;-43
2021/12/07 14:06:54;;;;;;;4.40;1.42;;;;;;;;;;6288556;22;20058;-43
2021/12/07 14:09:21;;;;;;;2.75;1.02;;;;;;;;;;6289670;22;20023;-42
2021/12/07 14:11:53;;;;;;;2.88;1.20;;;;;;;;;;6287282;22;20026;-44
2021/12/07 14:14:20;;;;;;;1.02;0.77;;;;;;;;;;6290160;22;20017;-43
2021/12/07 14:16:46;;;;;;;4.78;1.02;;;;;;;;;;6288990;22;20611;-43
2021/12/07 14:19:12;;;;;;;4.22;1.92;;;;;;;;;;6288689;22;20007;-43
2021/12/07 14:21:37;;;;;;;4.57;0.90;;;;;;;;;;6287569;22;20460;-45
2021/12/07 14:24:09;;;;;;;3.95;2.28;;;;;;;;;;6288306;22;20094;-43
2021/12/07 14:26:38;;;;;;;3.80;1.35;;;;;;;;;;6287495;22;20015;-43
2021/12/07 14:29:09;;;;;;;3.45;1.50;;;;;;;;;;6289947;22;20027;-43
2021/12/07 14:31:39;;;;;;;5.05;1.95;;;;;;;;;;6288189;22;20026;-45
2021/12/07 14:34:06;;;;;;;4.88;1.75;;;;;;;;;;6288955;22;20035;-44
2021/12/07 14:36:39;;;;;;;8.02;2.20;;;;;;;;;;6287287;22;20015;-44
2021/12/07 14:39:12;;;;;;;11.10;2.78;;;;;;;;;;6288334;22;20152;-43
2021/12/07 14:41:45;;;;;;;8.02;2.25;;;;;;;;;;6291595;22;20018;-43
2021/12/07 14:44:13;;;;;;;11.75;3.33;;;;;;;;;;6291062;22;20629;-42
2021/12/07 14:46:38;;;;;;;12.73;2.67;;;;;;;;;;6290219;22;20439;-42
2021/12/07 14:49:04;;;;;;;8.05;2.25;;;;;;;;;;6291336;22;20055;-44
2021/12/07 14:51:32;;;;;;;13.48;3.42;;;;;;;;;;6290392;22;20027;-44
2021/12/07 14:53:58;;;;;;;12.40;3.50;;;;;;;;;;6290073;22;20081;-42
2021/12/07 14:56:25;;;;;;;17.88;5.32;;;;;;;;;;6291244;22;20023;-43
2021/12/07 14:58:51;;;;;;;9.23;3.28;;;;;;;;;;6290427;22;20022;-43
2021/12/07 15:01:18;;;;;;;9.20;3.20;;;;;;;;;;6290374;22;20011;-44
2021/12/07 15:03:48;;;;;;;11.48;4.10;;;;;;;;;;6289341;22;20015;-43
2021/12/07 15:06:14;;;;;;;9.57;2.40;;;;;;;;;;6290459;22;20012;-42
2021/12/07 15:08:40;;;;;;;10.38;3.38;;;;;;;;;;6292058;22;20038;-45
2021/12/07 15:11:06;;;;;;;8.63;2.55;;;;;;;;;;6290147;22;20018;-42
2021/12/07 15:13:35;;;;;;;5.38;2.42;;;;;;;;;;6290305;22;20011;-43
2021/12/07 15:16:01;;;;;;;12.27;3.00;;;;;;;;;;6292159;22;20023;-44
2021/12/07 15:18:31;;;;;;;12.10;3.28;;;;;;;;;;6289802;22;20378;-45
2021/12/07 15:20:56;;;;;;;8.82;4.03;;;;;;;;;;6291687;22;20007;-43
2021/12/07 15:23:21;;;;;;;18.40;4.78;;;;;;;;;;6291766;22;20014;-43
2021/12/07 15:25:51;;;;;;;13.23;3.60;;;;;;;;;;6291149;22;20011;-44
2021/12/07 15:28:16;;;;;;;8.93;4.20;;;;;;;;;;6287920;22;20011;-44
2021/12/07 15:30:42;;;;;;;13.30;3.92;;;;;;;;;;6290825;22;20073;-43
2021/12/07 15:33:07;;;;;;;15.15;3.60;;;;;;;;;;6289288;22;20007;-42
2021/12/07 15:35:32;;;;;;;18.13;4.00;;;;;;;;;;6291145;22;20015;-43
2021/12/07 15:37:58;;;;;;;10.50;3.53;;;;;;;;;;6289161;22;20038;-44
2021/12/07 15:40:24;;;;;;;13.13;3.78;;;;;;;;;;6289981;22;20499;-44
2021/12/07 15:42:49;;;;;;;12.13;4.47;;;;;;;;;;6290731;22;20089;-42
2021/12/07 15:45:14;;;;;;;19.45;4.93;;;;;;;;;;6291107;22;20112;-42
2021/12/07 15:47:41;;;;;;;13.38;5.00;;;;;;;;;;6290722;22;20011;-42
2021/12/07 15:50:11;;;;;;;19.05;4.60;;;;;;;;;;6290526;22;20034;-43
2021/12/07 15:52:47;;;;;;;18.48;4.40;;;;;;;;;;6290071;22;20019;-43
2021/12/07 15:55:14;;;;;;;11.95;4.20;;;;;;;;;;6291926;22;20082;-43
2021/12/07 15:57:45;;;;;;;18.25;4.32;;;;;;;;;;6290277;22;20012;-43
2021/12/07 16:00:13;;;;;;;14.85;4.07;;;;;;;;;;6290940;22;20209;-43
2021/12/07 16:02:39;;;;;;;14.32;4.47;;;;;;;;;;6286506;22;20045;-43
2021/12/07 16:05:06;;;;;;;19.48;5.22;;;;;;;;;;6290166;22;20683;-43
2021/12/07 16:07:31;;;;;;;16.42;4.63;;;;;;;;;;6288626;22;20552;-43
2021/12/07 16:10:06;;;;;;;20.77;5.13;;;;;;;;;;6291994;22;20021;-43
2021/12/07 16:12:31;;;;;;;16.40;5.05;;;;;;;;;;6288237;22;20599;-43
2021/12/07 16:15:14;;;;;;;15.25;4.65;;;;;;;;;;6289496;22;20076;-43
2021/12/07 16:17:39;;;;;;;14.32;4.10;;;;;;;;;;6290281;22;20069;-43
2021/12/07 16:20:07;;;;;;;10.93;3.95;;;;;;;;;;6291330;22;20003;-44
2021/12/07 16:22:32;;;;;;;10.77;3.83;;;;;;;;;;6290445;22;20014;-44